Time;durP1;ratioP1;P1;durP2;ratioP2;P2;SDS_P1;SDS_P2;PMS_P1;PMS_P2;Temp;Humidity;BMP_temperature;BMP_pressure;BME280_temperature;BME280_humidity;BME280_pressure;Samples;Min_cycle;Max_cycle;Signal;HPM_P1;HPM_P2
2022/05/08 00:02:24;;;;;;;11.00;5.65;;;;;;;9.23;60.08;100064.19;4992007;28;20433;-81
2022/05/08 00:04:52;;;;;;;11.77;4.95;;;;;;;9.66;60.14;100107.66;4976361;28;20022;-82
2022/05/08 00:07:20;;;;;;;9.43;5.80;;;;;;;9.85;57.97;100119.84;4998983;28;20500;-83
2022/05/08 00:09:48;;;;;;;14.63;6.03;;;;;;;9.78;58.56;100078.34;4980117;28;20465;-82
2022/05/08 00:12:15;;;;;;;8.25;5.00;;;;;;;9.82;58.48;100079.38;4980115;28;20113;-83
2022/05/08 00:15:07;;;;;;;10.45;5.47;;;;;;;10.18;57.95;100097.25;4963737;28;20489;-82
2022/05/08 00:17:36;;;;;;;9.38;5.25;;;;;;;10.17;58.02;100085.25;4977735;28;20428;-82
2022/05/08 00:20:04;;;;;;;7.65;5.38;;;;;;;10.34;57.52;100089.31;5013756;28;20480;-82
2022/05/08 00:22:31;;;;;;;7.68;5.07;;;;;;;10.33;56.70;100084.84;4986322;28;20027;-80
2022/05/08 00:25:11;;;;;;;9.10;5.03;;;;;;;9.88;57.68;100078.09;4976627;28;20032;-82
2022/05/08 00:27:39;;;;;;;9.65;5.72;;;;;;;9.72;58.50;100080.44;4990702;28;20038;-81
2022/05/08 00:30:08;;;;;;;10.38;5.57;;;;;;;9.88;58.24;100097.66;4976362;28;20026;-82
2022/05/08 00:32:35;;;;;;;13.60;5.88;;;;;;;10.01;58.35;100082.00;5005682;28;20036;-83
2022/05/08 00:35:02;;;;;;;7.95;5.60;;;;;;;10.03;57.72;100064.91;5013445;28;20022;-83
2022/05/08 00:37:30;;;;;;;15.73;5.50;;;;;;;9.95;57.31;100070.09;4995431;28;20125;-83
2022/05/08 00:40:01;;;;;;;10.05;5.55;;;;;;;9.87;57.79;100093.22;4992641;28;20077;-83
2022/05/08 00:42:27;;;;;;;12.27;6.32;;;;;;;9.60;59.12;100071.78;4976769;28;20031;-83
2022/05/08 00:45:04;;;;;;;11.35;6.07;;;;;;;9.65;58.75;100069.69;4975510;28;20102;-83
2022/05/08 00:47:30;;;;;;;12.52;7.35;;;;;;;9.53;58.56;100086.97;4976952;28;20038;-83
2022/05/08 00:49:56;;;;;;;8.95;6.45;;;;;;;9.53;59.23;100086.13;4992990;28;20109;-82
2022/05/08 00:52:21;;;;;;;9.70;7.00;;;;;;;9.72;58.69;100090.78;4975973;28;20038;-83
2022/05/08 00:54:47;;;;;;;11.57;6.07;;;;;;;9.21;59.78;100076.78;4989907;28;20035;-83
2022/05/08 00:57:13;;;;;;;11.15;5.10;;;;;;;9.12;61.15;100057.97;4982119;28;20042;-83
2022/05/08 00:59:51;;;;;;;11.40;6.00;;;;;;;9.23;60.00;100074.50;4962970;28;20100;-83
2022/05/08 01:02:18;;;;;;;12.57;7.40;;;;;;;9.26;59.48;100068.28;4991698;28;20126;-84
2022/05/08 01:04:45;;;;;;;11.60;6.38;;;;;;;9.32;59.42;100069.84;4991981;28;20041;-83
2022/05/08 01:07:12;;;;;;;8.75;5.53;;;;;;;9.27;59.77;100067.16;4993261;28;20026;-84
2022/05/08 01:09:40;;;;;;;13.02;6.13;;;;;;;9.31;59.41;100089.69;4975553;28;20446;-83
2022/05/08 01:12:10;;;;;;;20.73;6.60;;;;;;;9.28;59.20;100068.81;4972072;28;20053;-83
2022/05/08 01:14:37;;;;;;;10.77;7.03;;;;;;;9.42;59.53;100071.59;4972729;28;20509;-83
2022/05/08 01:17:04;;;;;;;9.43;6.30;;;;;;;9.39;59.58;100066.63;4971993;28;20131;-83
2022/05/08 01:19:32;;;;;;;17.15;7.85;;;;;;;8.82;60.76;100067.78;4961998;28;20470;-83
2022/05/08 01:21:59;;;;;;;13.57;6.03;;;;;;;8.92;60.63;100077.91;4971962;28;20466;-82
2022/05/08 01:24:28;;;;;;;8.63;5.85;;;;;;;9.05;60.23;100063.16;4972279;28;20043;-83
2022/05/08 01:26:56;;;;;;;12.60;6.38;;;;;;;9.13;60.14;100081.13;4972234;28;20513;-83
2022/05/08 01:29:24;;;;;;;12.82;6.43;;;;;;;9.10;60.38;100085.38;4972084;28;20039;-83
2022/05/08 01:31:53;;;;;;;8.70;5.75;;;;;;;8.96;60.23;100070.59;4971948;28;20038;-82
2022/05/08 01:34:22;;;;;;;14.82;6.82;;;;;;;8.75;60.89;100079.34;4973406;28;20034;-82
2022/05/08 01:36:48;;;;;;;8.85;6.15;;;;;;;8.64;61.40;100058.34;4984784;28;20046;-83
2022/05/08 01:39:20;;;;;;;8.45;6.13;;;;;;;8.73;61.70;100067.69;4990915;28;20058;-82
2022/05/08 01:41:46;;;;;;;13.20;6.82;;;;;;;8.84;61.42;100077.50;4989770;28;20066;-82
2022/05/08 01:44:12;;;;;;;14.77;7.22;;;;;;;8.57;62.21;100075.50;4992848;28;20034;-82
2022/05/08 01:46:42;;;;;;;11.18;6.85;;;;;;;8.18;64.22;100074.72;4988857;28;20422;-83
2022/05/08 01:49:07;;;;;;;10.18;6.95;;;;;;;7.78;65.94;100060.34;4992700;28;20031;-82
2022/05/08 01:51:34;;;;;;;13.30;7.55;;;;;;;7.52;67.21;100063.50;4991830;28;20029;-81
2022/05/08 01:54:05;;;;;;;13.50;6.93;;;;;;;7.90;65.06;100066.25;4991381;28;20553;-82
2022/05/08 01:56:33;;;;;;;9.93;6.45;;;;;;;7.98;65.07;100059.19;5007373;28;20030;-82
2022/05/08 01:58:59;;;;;;;17.38;6.50;;;;;;;8.22;63.71;100070.22;4991155;28;20490;-83
2022/05/08 02:01:27;;;;;;;13.98;6.78;;;;;;;8.13;63.98;100063.69;4990265;28;20041;-81
2022/05/08 02:03:56;;;;;;;17.85;6.22;;;;;;;8.39;63.17;100085.53;4990868;28;20026;-83
2022/05/08 02:06:26;;;;;;;12.20;6.72;;;;;;;7.98;64.19;100064.75;4986229;28;20138;-82
2022/05/08 02:08:56;;;;;;;11.57;6.95;;;;;;;7.88;64.44;100060.19;4973076;28;20019;-82
2022/05/08 02:11:23;;;;;;;10.30;6.35;;;;;;;8.05;64.89;100053.22;4973228;28;20035;-82
2022/05/08 02:13:49;;;;;;;8.95;6.18;;;;;;;8.25;64.98;100074.34;4989912;28;20022;-82
2022/05/08 02:16:14;;;;;;;12.82;7.88;;;;;;;8.23;64.77;100054.31;4990534;28;20084;-82
2022/05/08 02:18:44;;;;;;;10.32;6.90;;;;;;;8.34;63.44;100046.63;4990742;28;20042;-82
2022/05/08 02:21:13;;;;;;;10.52;6.20;;;;;;;8.69;62.96;100083.38;4987694;28;20019;-82
2022/05/08 02:23:46;;;;;;;12.82;6.72;;;;;;;8.73;62.66;100061.25;4988721;28;20474;-83
2022/05/08 02:26:18;;;;;;;14.07;7.32;;;;;;;8.62;63.34;100063.44;4990980;28;20027;-82
2022/05/08 02:28:45;;;;;;;11.52;5.85;;;;;;;8.60;63.09;100068.50;4974695;28;20513;-82
2022/05/08 02:31:12;;;;;;;8.45;5.57;;;;;;;8.06;63.64;100061.28;4990151;28;20022;-82
2022/05/08 02:33:37;;;;;;;8.00;5.95;;;;;;;7.79;63.85;100073.13;4980631;28;20042;-82
2022/05/08 02:36:04;;;;;;;16.42;7.00;;;;;;;7.78;63.18;100069.50;4992275;28;20482;-83
2022/05/08 02:38:30;;;;;;;11.55;6.47;;;;;;;7.54;64.57;100080.72;4993319;28;20494;-82
2022/05/08 02:40:57;;;;;;;10.23;7.13;;;;;;;7.42;65.81;100081.13;4994184;28;20117;-82
2022/05/08 02:43:23;;;;;;;11.73;7.25;;;;;;;7.33;64.59;100066.25;4979238;28;20502;-83
2022/05/08 02:45:48;;;;;;;13.18;7.40;;;;;;;7.32;65.37;100061.81;4988297;28;20096;-83
2022/05/08 02:48:15;;;;;;;10.10;7.40;;;;;;;6.92;65.56;100075.94;4991071;28;20022;-83
2022/05/08 02:50:44;;;;;;;18.85;7.30;;;;;;;7.11;65.91;100068.44;4974622;28;20097;-83
2022/05/08 02:53:09;;;;;;;16.90;6.68;;;;;;;7.33;65.80;100077.38;4973293;28;20042;-83
2022/05/08 02:58:32;;;;;;;29.20;9.40;;;;;;;7.66;64.07;100066.34;4992161;28;20041;-83
2022/05/08 03:00:59;;;;;;;14.73;7.25;;;;;;;7.71;63.29;100077.41;4974827;28;20484;-82
2022/05/08 03:03:25;;;;;;;14.00;7.20;;;;;;;7.70;64.17;100104.41;4994623;28;20378;-82
2022/05/08 03:05:51;;;;;;;12.98;8.02;;;;;;;7.53;64.64;100104.13;5011444;28;20044;-82
2022/05/08 03:08:18;;;;;;;11.18;7.93;;;;;;;6.70;66.85;100072.56;4963846;28;20037;-81
2022/05/08 03:13:35;;;;;;;15.80;9.25;;;;;;;6.23;69.72;100086.03;5013714;28;20037;-82
2022/05/08 03:16:02;;;;;;;12.63;8.27;;;;;;;6.62;68.56;100069.56;4981121;28;20140;-82
2022/05/08 03:18:29;;;;;;;12.13;7.90;;;;;;;6.91;67.39;100068.72;5002941;28;20041;-82
2022/05/08 03:20:54;;;;;;;11.98;7.75;;;;;;;7.29;66.28;100105.78;4977445;28;20037;-81
2022/05/08 03:23:19;;;;;;;11.85;8.95;;;;;;;6.07;68.62;100092.84;4992192;28;20038;-82
2022/05/08 03:25:48;;;;;;;17.40;8.85;;;;;;;5.59;70.95;100102.56;5012791;28;20038;-81
2022/05/08 03:28:15;;;;;;;12.55;8.18;;;;;;;5.41;71.70;100113.19;4996237;28;20073;-82
2022/05/08 03:30:49;;;;;;;16.75;7.53;;;;;;;4.95;72.57;100108.66;5014125;28;20088;-81
2022/05/08 03:33:17;;;;;;;12.60;7.95;;;;;;;4.84;73.29;100096.78;5004580;28;20134;-82
2022/05/08 03:35:44;;;;;;;30.75;10.93;;;;;;;4.90;74.56;100112.25;5000030;28;20038;-82
2022/05/08 03:38:11;;;;;;;24.85;13.00;;;;;;;5.09;73.17;100099.72;4977286;28;20034;-81
2022/05/08 03:40:36;;;;;;;25.92;14.00;;;;;;;5.25;72.55;100117.16;4994971;28;20033;-81
2022/05/08 03:43:04;;;;;;;24.88;12.73;;;;;;;5.60;72.25;100135.56;4977512;28;20038;-79
2022/05/08 03:45:31;;;;;;;23.85;10.85;;;;;;;6.06;71.80;100121.75;4981595;28;20480;-81
2022/05/08 03:47:59;;;;;;;14.32;7.80;;;;;;;6.38;69.23;100139.81;4992825;28;20100;-82
2022/05/08 03:50:26;;;;;;;17.77;8.35;;;;;;;6.36;68.13;100117.06;4961031;28;20081;-82
2022/05/08 03:52:55;;;;;;;24.30;7.78;;;;;;;6.81;67.68;100137.22;4977230;28;20152;-81
2022/05/08 03:55:21;;;;;;;10.80;7.93;;;;;;;6.70;66.29;100128.16;4999664;28;20056;-81
2022/05/08 03:57:49;;;;;;;11.27;6.35;;;;;;;6.84;66.19;100117.16;4995979;28;20037;-81
2022/05/08 04:00:17;;;;;;;14.27;7.32;;;;;;;6.65;66.58;100113.47;5008939;28;20088;-82
2022/05/08 04:02:44;;;;;;;11.75;7.43;;;;;;;6.72;66.98;100128.69;4992907;28;20092;-81
2022/05/08 04:05:11;;;;;;;10.75;7.65;;;;;;;7.16;66.99;100132.41;4975072;28;20477;-80
2022/05/08 04:07:40;;;;;;;15.30;8.07;;;;;;;7.57;66.26;100138.56;4994075;28;20053;-81
2022/05/08 04:10:07;;;;;;;12.85;7.80;;;;;;;7.57;65.67;100125.50;4995678;28;20471;-82
2022/05/08 04:12:34;;;;;;;14.63;8.70;;;;;;;7.55;65.58;100129.69;4978710;28;20030;-81
2022/05/08 04:15:00;;;;;;;23.02;9.60;;;;;;;7.02;67.45;100120.31;4995885;28;20025;-81
2022/05/08 04:17:28;;;;;;;10.40;8.20;;;;;;;7.03;68.24;100119.19;4995434;28;20056;-82
2022/05/08 04:19:56;;;;;;;16.00;9.88;;;;;;;6.93;69.13;100113.75;4981176;28;20126;-81
2022/05/08 04:25:10;;;;;;;18.92;8.60;;;;;;;7.78;67.44;100136.34;4999988;28;20049;-79
2022/05/08 04:27:39;;;;;;;13.82;8.48;;;;;;;7.84;66.49;100106.44;4978278;28;20139;-79
2022/05/08 04:30:06;;;;;;;19.15;9.52;;;;;;;8.34;64.85;100113.50;5013881;28;20444;-82
2022/05/08 04:32:32;;;;;;;17.98;9.48;;;;;;;8.11;65.41;100121.69;4987684;28;20041;-79
2022/05/08 04:34:57;;;;;;;18.65;10.25;;;;;;;7.74;66.93;100132.50;4983745;28;20401;-79
2022/05/08 04:37:23;;;;;;;23.90;11.18;;;;;;;7.16;69.58;100140.75;4975863;28;20031;-79
2022/05/08 04:39:48;;;;;;;17.10;10.23;;;;;;;6.60;71.22;100133.81;4975143;28;20204;-79
2022/05/08 04:42:14;;;;;;;19.50;9.73;;;;;;;6.58;72.59;100144.41;4992571;28;20041;-81
2022/05/08 04:44:39;;;;;;;23.05;10.18;;;;;;;6.83;72.09;100140.53;4992223;28;20026;-81
2022/05/08 04:47:06;;;;;;;39.97;10.93;;;;;;;7.14;70.71;100131.03;4991690;28;20026;-76
2022/05/08 04:49:37;;;;;;;18.45;8.82;;;;;;;7.04;70.13;100120.84;4981958;28;20500;-79
2022/05/08 04:52:03;;;;;;;34.40;12.32;;;;;;;7.16;69.87;100121.28;4972769;28;20026;-75
2022/05/08 04:54:29;;;;;;;18.85;9.75;;;;;;;7.26;70.30;100137.00;4989855;28;20035;-77
2022/05/08 04:56:56;;;;;;;18.35;9.15;;;;;;;7.55;69.90;100135.25;4975483;28;20045;-74
2022/05/08 04:59:21;;;;;;;13.60;8.90;;;;;;;7.73;68.49;100128.91;4993516;28;20034;-74
2022/05/08 05:01:49;;;;;;;17.33;8.50;;;;;;;7.54;67.88;100139.19;4987096;28;20093;-77
2022/05/08 05:04:15;;;;;;;17.02;8.32;;;;;;;7.63;68.29;100114.28;4973816;28;20034;-75
2022/05/08 05:06:43;;;;;;;14.15;9.20;;;;;;;7.75;68.32;100102.72;4983366;28;20037;-76
2022/05/08 05:09:09;;;;;;;12.68;7.90;;;;;;;7.48;69.37;100129.22;4981846;28;20161;-75
2022/05/08 05:11:34;;;;;;;11.55;7.88;;;;;;;7.33;70.55;100133.84;4991350;28;20520;-77
2022/05/08 05:14:03;;;;;;;16.13;9.13;;;;;;;7.78;69.74;100127.97;5002341;28;20038;-77
2022/05/08 05:16:28;;;;;;;17.90;8.65;;;;;;;8.14;68.77;100118.28;4972332;28;20061;-76
2022/05/08 05:18:54;;;;;;;12.15;8.57;;;;;;;8.14;69.61;100123.84;4989875;28;20089;-76
2022/05/08 05:21:20;;;;;;;13.63;8.40;;;;;;;7.68;68.75;100119.78;5006036;28;20026;-74
2022/05/08 05:23:45;;;;;;;21.42;7.82;;;;;;;7.80;67.13;100109.03;4975862;28;20037;-75
2022/05/08 05:26:11;;;;;;;11.48;6.85;;;;;;;8.29;64.37;100129.16;4982831;28;20030;-76
2022/05/08 05:28:37;;;;;;;13.32;6.43;;;;;;;8.51;63.23;100143.66;4987895;28;20086;-74
2022/05/08 05:31:02;;;;;;;10.45;7.22;;;;;;;8.52;64.47;100118.25;4984909;28;20042;-74
2022/05/08 05:33:30;;;;;;;9.45;6.38;;;;;;;8.67;64.72;100133.03;4986354;28;20149;-76
2022/05/08 05:35:57;;;;;;;14.40;8.52;;;;;;;8.93;64.51;100136.19;4981008;28;20133;-79
2022/05/08 05:38:22;;;;;;;12.13;6.68;;;;;;;8.49;64.32;100126.34;4984225;28;20045;-75
2022/05/08 05:40:49;;;;;;;17.58;8.50;;;;;;;8.45;64.22;100108.59;4992509;28;20105;-77
2022/05/08 05:43:14;;;;;;;10.27;7.05;;;;;;;8.70;63.57;100102.56;4992815;28;20034;-78
2022/05/08 05:45:40;;;;;;;10.60;6.75;;;;;;;9.17;61.94;100137.13;4992929;28;20088;-75
2022/05/08 05:48:08;;;;;;;12.48;7.30;;;;;;;9.38;60.89;100124.44;4973205;28;20042;-78
2022/05/08 05:50:37;;;;;;;8.85;6.32;;;;;;;9.26;59.23;100118.53;4974718;28;20492;-77
2022/05/08 05:53:03;;;;;;;10.73;6.82;;;;;;;9.31;59.88;100114.81;4991893;28;20132;-77
2022/05/08 05:55:29;;;;;;;10.20;6.13;;;;;;;9.71;58.55;100128.22;4979157;28;20053;-76
2022/05/08 05:57:56;;;;;;;12.50;5.72;;;;;;;9.63;57.80;100099.06;5011497;28;20113;-74
2022/05/08 06:00:24;;;;;;;14.82;6.82;;;;;;;9.83;58.70;100101.41;5011369;28;20061;-80
2022/05/08 06:02:50;;;;;;;10.35;6.25;;;;;;;9.91;58.00;100099.84;4993596;28;20033;-74
2022/05/08 06:05:19;;;;;;;13.77;6.80;;;;;;;9.89;58.09;100129.22;4992969;28;20030;-75
2022/05/08 06:07:45;;;;;;;11.27;6.30;;;;;;;9.90;58.69;100102.94;4994207;28;20036;-76
2022/05/08 06:10:12;;;;;;;12.15;6.63;;;;;;;9.98;58.23;100125.38;5000477;28;20113;-76
2022/05/08 06:12:37;;;;;;;9.05;6.03;;;;;;;10.10;57.13;100108.06;4975083;28;20105;-76
2022/05/08 06:15:05;;;;;;;13.65;6.95;;;;;;;10.28;56.46;100115.75;4974399;28;20126;-75
2022/05/08 06:17:30;;;;;;;12.50;6.32;;;;;;;10.15;57.92;100120.25;4985694;28;20097;-77
2022/05/08 06:19:57;;;;;;;8.10;5.43;;;;;;;10.11;57.20;100117.25;4974229;28;20561;-77
2022/05/08 06:22:23;;;;;;;10.75;5.20;;;;;;;10.37;54.68;100097.88;5011774;28;20030;-76
2022/05/08 06:24:48;;;;;;;10.13;4.85;;;;;;;10.77;53.96;100104.72;4989960;28;20042;-75
2022/05/08 06:27:14;;;;;;;9.50;5.00;;;;;;;11.14;52.89;100098.97;4991601;28;20030;-75
2022/05/08 06:29:39;;;;;;;7.13;5.05;;;;;;;10.95;52.84;100102.84;4996967;28;20061;-75
2022/05/08 06:32:05;;;;;;;14.35;5.60;;;;;;;10.78;52.96;100109.19;4979813;28;20031;-74
2022/05/08 06:34:33;;;;;;;9.65;4.47;;;;;;;10.97;53.05;100114.53;4987088;28;20061;-75
2022/05/08 06:36:58;;;;;;;10.15;4.25;;;;;;;11.34;52.95;100095.59;4980448;28;20556;-75
2022/05/08 06:39:24;;;;;;;7.05;4.63;;;;;;;11.12;50.85;100085.31;5009978;28;20046;-75
2022/05/08 06:41:50;;;;;;;9.73;5.75;;;;;;;11.01;52.39;100095.13;5011653;28;20038;-75
2022/05/08 06:44:16;;;;;;;10.75;4.75;;;;;;;11.37;50.92;100094.94;4985528;28;20393;-76
2022/05/08 06:46:42;;;;;;;9.45;4.82;;;;;;;11.64;49.96;100097.78;4994908;28;20041;-75
2022/05/08 06:49:07;;;;;;;15.50;4.90;;;;;;;11.87;48.80;100114.47;4993697;28;20493;-75
2022/05/08 06:51:37;;;;;;;11.52;4.47;;;;;;;11.84;48.42;100087.94;4995433;28;20025;-75
2022/05/08 06:54:05;;;;;;;21.05;5.20;;;;;;;12.38;50.15;100083.97;4979461;28;20037;-74
2022/05/08 06:56:35;;;;;;;9.80;4.78;;;;;;;12.52;47.36;100077.34;5002958;28;20538;-74
2022/05/08 07:01:45;;;;;;;4.78;3.70;;;;;;;12.40;45.08;100104.09;5007050;28;20515;-74
2022/05/08 07:04:12;;;;;;;7.05;4.00;;;;;;;11.77;47.63;100096.84;5023349;28;20049;-73
2022/05/08 07:06:39;;;;;;;9.55;4.90;;;;;;;12.24;47.68;100100.97;5002287;28;20034;-72
2022/05/08 07:09:06;;;;;;;7.53;4.53;;;;;;;12.62;46.92;100096.66;5002208;28;20037;-72
2022/05/08 07:11:32;;;;;;;9.82;4.55;;;;;;;13.23;47.02;100089.19;5003604;28;20026;-72
2022/05/08 07:13:59;;;;;;;8.68;4.63;;;;;;;13.21;46.93;100092.31;4999792;28;20044;-73
2022/05/08 07:16:24;;;;;;;10.65;3.97;;;;;;;13.49;46.88;100089.03;5008702;28;20466;-71
2022/05/08 07:18:50;;;;;;;10.32;4.28;;;;;;;13.22;46.14;100088.34;5012825;28;20168;-73
2022/05/08 07:21:16;;;;;;;7.72;5.07;;;;;;;13.42;46.28;100097.97;5014330;28;20026;-73
2022/05/08 07:23:41;;;;;;;7.88;4.85;;;;;;;13.52;45.74;100085.59;4994495;28;20029;-74
2022/05/08 07:26:07;;;;;;;8.82;4.60;;;;;;;13.60;45.70;100092.31;5008118;28;20117;-74
2022/05/08 07:28:33;;;;;;;8.73;4.78;;;;;;;13.50;47.24;100087.06;5013901;28;20172;-74
2022/05/08 07:30:58;;;;;;;15.07;4.20;;;;;;;13.82;46.89;100082.72;5013506;28;20165;-73
2022/05/08 07:33:24;;;;;;;7.15;4.85;;;;;;;14.25;46.33;100083.53;4995888;28;20120;-73
2022/05/08 07:38:34;;;;;;;16.55;5.00;;;;;;;13.52;46.18;100085.59;5013279;28;20528;-74
2022/05/08 07:41:01;;;;;;;39.70;6.90;;;;;;;13.83;45.90;100078.75;5013523;28;20034;-74
2022/05/08 07:43:27;;;;;;;6.07;4.70;;;;;;;14.20;44.93;100077.28;4996021;28;20033;-74
2022/05/08 07:45:53;;;;;;;8.23;4.68;;;;;;;14.36;44.94;100078.31;4996474;28;20041;-73
2022/05/08 07:48:19;;;;;;;11.27;5.28;;;;;;;14.27;44.56;100069.13;4996626;28;20032;-74
2022/05/08 07:50:45;;;;;;;7.13;4.40;;;;;;;14.05;45.38;100073.94;5014053;28;20485;-74
2022/05/08 07:53:15;;;;;;;22.77;5.90;;;;;;;14.16;44.77;100080.78;5013996;28;20022;-74
2022/05/08 07:55:40;;;;;;;9.25;5.43;;;;;;;14.66;44.96;100078.16;4996479;28;20515;-74
2022/05/08 07:58:06;;;;;;;11.15;5.28;;;;;;;14.86;43.18;100068.00;5000750;28;20030;-74
2022/05/08 08:00:32;;;;;;;7.38;4.95;;;;;;;14.98;43.17;100074.84;4994199;28;20030;-74
2022/05/08 08:02:57;;;;;;;14.30;6.07;;;;;;;15.16;42.72;100067.81;4976621;28;20029;-74
2022/05/08 08:05:23;;;;;;;8.02;5.85;;;;;;;15.42;43.86;100083.53;4976628;28;20037;-75
2022/05/08 08:07:50;;;;;;;15.32;9.10;;;;;;;15.66;42.03;100066.94;4976584;28;20026;-74
2022/05/08 08:10:16;;;;;;;9.50;5.45;;;;;;;15.83;41.68;100065.84;4994100;28;20034;-74
2022/05/08 08:12:41;;;;;;;9.98;6.00;;;;;;;15.78;40.98;100068.94;4992672;28;20084;-74
2022/05/08 08:15:08;;;;;;;15.25;6.05;;;;;;;15.55;41.08;100058.16;4994113;28;20065;-75
2022/05/08 08:17:33;;;;;;;10.50;5.07;;;;;;;15.79;41.87;100054.44;4976484;28;20034;-74
2022/05/08 08:19:59;;;;;;;12.50;5.43;;;;;;;15.77;41.13;100064.47;4976701;28;20496;-72
2022/05/08 08:22:24;;;;;;;6.93;4.78;;;;;;;15.84;40.63;100068.31;4976345;28;20030;-76
2022/05/08 08:24:50;;;;;;;9.85;5.18;;;;;;;16.28;40.93;100063.97;4994046;28;20030;-76
2022/05/08 08:27:21;;;;;;;13.30;4.75;;;;;;;16.53;40.63;100066.66;4993603;28;20034;-76
2022/05/08 08:29:47;;;;;;;7.45;4.63;;;;;;;16.66;40.44;100058.94;4976031;28;20121;-76
2022/05/08 08:32:13;;;;;;;10.38;5.72;;;;;;;16.37;39.35;100061.81;4993833;28;20061;-76
2022/05/08 08:34:38;;;;;;;9.30;6.15;;;;;;;16.81;39.71;100058.13;4993235;28;20034;-76
2022/05/08 08:37:04;;;;;;;9.32;5.63;;;;;;;16.84;38.88;100056.59;4993650;28;20030;-75
2022/05/08 08:39:30;;;;;;;12.18;5.82;;;;;;;16.94;38.25;100058.88;4983494;28;20054;-76
2022/05/08 08:42:24;;;;;;;10.85;5.78;;;;;;;17.03;37.87;100058.72;4992165;28;20026;-76
2022/05/08 08:47:52;;;;;;;8.35;4.47;;;;;;;16.85;38.21;100061.06;4993907;28;20033;-75
2022/05/08 08:50:19;;;;;;;8.65;5.00;;;;;;;16.95;37.86;100046.41;4976059;28;20117;-76
2022/05/08 08:52:46;;;;;;;8.80;4.88;;;;;;;16.97;37.55;100041.19;4993134;28;20022;-75
2022/05/08 08:55:11;;;;;;;13.98;5.72;;;;;;;17.53;37.99;100050.66;4991349;28;20030;-76
2022/05/08 08:57:37;;;;;;;7.68;4.90;;;;;;;17.44;36.99;100044.38;4993200;28;20030;-75
2022/05/08 09:00:07;;;;;;;11.57;4.68;;;;;;;17.78;39.18;100044.72;4993014;28;20109;-76
2022/05/08 09:02:34;;;;;;;9.82;4.75;;;;;;;18.13;38.50;100036.59;5007966;28;20121;-76
2022/05/08 09:05:04;;;;;;;8.10;4.90;;;;;;;18.24;38.07;100029.94;4993333;28;20037;-76
2022/05/08 09:07:41;;;;;;;9.35;5.15;;;;;;;17.67;37.66;100040.84;4975894;28;20113;-76
2022/05/08 09:10:08;;;;;;;11.32;4.93;;;;;;;17.74;38.77;100037.34;4992089;28;20106;-76
2022/05/08 09:12:34;;;;;;;8.10;5.03;;;;;;;17.81;36.64;100024.19;4992655;28;20030;-76
2022/05/08 09:15:14;;;;;;;10.20;5.53;;;;;;;17.80;36.21;100016.88;4991858;28;20497;-76
2022/05/08 09:17:44;;;;;;;7.47;4.72;;;;;;;18.10;37.03;100030.50;4975687;28;20505;-76
2022/05/08 09:20:34;;;;;;;5.70;4.78;;;;;;;18.40;36.10;100033.88;4988745;28;20113;-79
2022/05/08 09:23:04;;;;;;;7.15;4.50;;;;;;;18.45;34.83;100013.72;4964443;28;20045;-79
2022/05/08 09:25:52;;;;;;;7.05;4.32;;;;;;;18.53;34.16;100032.50;4992400;28;20458;-74
2022/05/08 09:28:28;;;;;;;11.50;5.72;;;;;;;18.49;35.91;100029.59;4971917;28;20035;-76
2022/05/08 09:31:01;;;;;;;12.10;5.57;;;;;;;18.51;35.40;100015.88;4972104;28;20043;-76
2022/05/08 09:33:37;;;;;;;10.90;4.88;;;;;;;18.09;36.98;100020.34;4971461;28;20456;-78
2022/05/08 09:36:11;;;;;;;10.30;5.82;;;;;;;18.51;37.25;100017.91;4987087;28;20536;-76
2022/05/08 09:38:41;;;;;;;11.38;4.60;;;;;;;18.29;36.49;100023.16;4986720;28;20138;-78
2022/05/08 09:41:08;;;;;;;11.45;6.65;;;;;;;18.58;37.52;100017.22;4990038;28;20456;-77
2022/05/08 09:43:34;;;;;;;9.07;5.38;;;;;;;19.01;37.29;100020.00;4990273;28;20110;-77
2022/05/08 09:46:01;;;;;;;8.15;5.38;;;;;;;18.91;36.53;100012.94;5000113;28;20017;-77
2022/05/08 09:48:28;;;;;;;7.07;4.95;;;;;;;19.00;36.93;100009.88;5013452;28;20030;-76
2022/05/08 09:50:59;;;;;;;20.67;5.63;;;;;;;18.80;36.46;99990.06;4996956;28;20068;-76
2022/05/08 09:53:25;;;;;;;23.77;5.72;;;;;;;18.13;36.73;99977.94;5008100;28;20044;-78
2022/05/08 09:55:56;;;;;;;10.27;5.05;;;;;;;18.71;36.80;100009.38;5000427;28;20026;-76
2022/05/08 09:58:22;;;;;;;18.33;5.82;;;;;;;19.29;37.57;99987.63;4978438;28;20035;-81
2022/05/08 10:00:51;;;;;;;11.15;5.57;;;;;;;19.45;36.34;99984.63;4997695;28;20036;-76
2022/05/08 10:03:17;;;;;;;11.85;6.50;;;;;;;19.56;36.58;99984.81;4990761;28;20034;-77
2022/05/08 10:05:43;;;;;;;9.10;7.00;;;;;;;19.63;36.61;99974.34;5003822;28;20060;-78
2022/05/08 10:08:12;;;;;;;15.65;6.82;;;;;;;19.72;37.41;99979.75;5004464;28;20072;-78
2022/05/08 10:14:04;;;;;;;13.27;7.47;;;;;;;19.83;36.22;99977.03;5009439;28;20088;-78
2022/05/08 10:17:02;;;;;;;14.05;6.88;;;;;;;19.76;36.74;99969.25;4960031;28;20060;-78
2022/05/08 10:19:27;;;;;;;14.23;7.00;;;;;;;19.85;36.37;99966.13;4991868;28;20022;-78
2022/05/08 10:21:53;;;;;;;25.30;7.68;;;;;;;19.70;36.50;99962.28;4995036;28;20034;-78
2022/05/08 10:24:34;;;;;;;12.98;6.45;;;;;;;19.90;37.09;99954.41;4996086;28;20033;-79
2022/05/08 10:27:15;;;;;;;10.95;6.43;;;;;;;19.55;36.81;99961.28;4996110;28;20092;-78
2022/05/08 10:30:03;;;;;;;10.40;5.78;;;;;;;19.63;37.12;99954.50;4978434;28;20177;-78
2022/05/08 10:32:30;;;;;;;10.93;6.28;;;;;;;19.83;35.73;99956.34;4978440;28;20079;-79
2022/05/08 10:35:15;;;;;;;8.95;6.40;;;;;;;19.89;35.84;99946.28;4978324;28;20030;-78
2022/05/08 10:37:42;;;;;;;11.35;6.85;;;;;;;19.83;36.04;99945.00;4978163;28;20034;-78
2022/05/08 10:40:23;;;;;;;7.07;6.00;;;;;;;19.59;35.80;99939.44;4977954;28;20607;-78
2022/05/08 10:42:55;;;;;;;17.25;6.22;;;;;;;19.88;35.81;99941.81;4977935;28;20413;-78
2022/05/08 10:45:32;;;;;;;13.70;5.53;;;;;;;20.08;35.52;99947.34;4978100;28;20506;-78
2022/05/08 10:48:08;;;;;;;12.55;6.25;;;;;;;20.29;34.49;99941.91;4995646;28;20041;-78
2022/05/08 10:50:35;;;;;;;10.25;5.30;;;;;;;20.17;33.16;99927.97;4978711;28;20033;-78
2022/05/08 10:53:00;;;;;;;8.45;5.93;;;;;;;20.03;35.46;99908.75;4982009;28;20029;-77
2022/05/08 10:55:27;;;;;;;13.00;5.13;;;;;;;20.22;35.18;99921.13;4992629;28;20034;-78
2022/05/08 10:57:54;;;;;;;30.42;6.10;;;;;;;20.19;34.59;99925.56;4978006;28;20037;-78
2022/05/08 11:00:22;;;;;;;10.52;6.05;;;;;;;20.28;34.20;99920.38;4977910;28;20060;-77
2022/05/08 11:02:55;;;;;;;9.90;4.78;;;;;;;20.59;34.10;99917.41;4991479;28;20038;-78
2022/05/08 11:05:22;;;;;;;15.18;5.63;;;;;;;20.76;32.88;99924.44;4995291;28;20619;-77
2022/05/08 11:07:48;;;;;;;7.38;5.22;;;;;;;20.65;33.82;99900.81;4987315;28;20083;-78
2022/05/08 11:10:34;;;;;;;32.33;6.50;;;;;;;20.84;32.90;99922.50;4977953;28;20041;-79
2022/05/08 11:13:02;;;;;;;7.50;5.30;;;;;;;20.92;34.17;99915.66;4977701;28;20038;-77
2022/05/08 11:15:30;;;;;;;8.98;5.60;;;;;;;20.80;33.75;99898.88;4995015;28;20040;-77
2022/05/08 11:18:18;;;;;;;10.25;4.82;;;;;;;21.08;34.01;99915.34;4977557;28;20481;-78
2022/05/08 11:20:44;;;;;;;17.27;6.72;;;;;;;20.70;34.31;99891.91;4977438;28;20037;-79
2022/05/08 11:23:14;;;;;;;8.52;4.97;;;;;;;20.56;34.15;99887.75;4985668;28;20021;-78
2022/05/08 11:25:40;;;;;;;7.97;4.60;;;;;;;20.29;35.80;99901.31;4983486;28;20111;-75
2022/05/08 11:28:15;;;;;;;8.85;5.43;;;;;;;20.33;35.11;99897.28;4994905;28;20409;-81
2022/05/08 11:30:44;;;;;;;8.43;5.03;;;;;;;20.60;35.12;99911.31;5030376;28;20018;-81
2022/05/08 11:36:05;;;;;;;11.38;4.72;;;;;;;20.92;35.04;99897.78;5018486;28;20041;-75
2022/05/08 11:38:50;;;;;;;7.85;4.43;;;;;;;21.04;34.98;99906.78;4997378;28;20109;-77
2022/05/08 11:41:18;;;;;;;8.45;4.50;;;;;;;21.08;34.36;99894.66;5014616;28;20028;-76
2022/05/08 11:43:49;;;;;;;5.03;4.47;;;;;;;21.28;34.87;99890.28;5014434;28;20021;-81
2022/05/08 11:46:39;;;;;;;12.88;5.20;;;;;;;21.42;35.03;99886.69;5005977;28;20021;-77
2022/05/08 11:49:22;;;;;;;10.60;4.95;;;;;;;21.48;35.76;99878.59;5012038;28;20057;-76
2022/05/08 11:51:49;;;;;;;10.15;4.85;;;;;;;21.63;36.06;99861.56;4998998;28;20463;-78
2022/05/08 11:54:32;;;;;;;9.05;5.53;;;;;;;21.85;34.96;99874.66;4998125;28;20033;-78